createdAt,value
2022-11-01T00:00:54.797Z,5.77
2022-11-01T00:03:21.924Z,5.40
2022-11-01T00:05:50.045Z,5.67
2022-11-01T00:08:18.490Z,5.53
2022-11-01T00:10:45.569Z,5.40
2022-11-01T00:13:12.664Z,5.50
2022-11-01T00:15:39.729Z,6.33
2022-11-01T00:18:06.849Z,5.73
2022-11-01T00:20:33.933Z,6.50
2022-11-01T00:23:01.302Z,5.93
2022-11-01T00:25:29.950Z,5.90
2022-11-01T00:27:57.011Z,7.37
2022-11-01T00:30:24.106Z,7.20
2022-11-01T00:32:51.178Z,6.53
2022-11-01T00:35:18.275Z,6.47
2022-11-01T00:37:45.361Z,6.07
2022-11-01T00:40:12.673Z,6.13
2022-11-01T00:42:41.105Z,6.70
2022-11-01T00:45:08.440Z,6.40
2022-11-01T00:47:35.582Z,6.83
2022-11-01T00:50:02.707Z,6.13
2022-11-01T00:52:29.775Z,6.73
2022-11-01T00:54:56.861Z,5.83
2022-11-01T00:57:23.921Z,6.40
2022-11-01T01:02:20.500Z,6.70
2022-11-01T01:04:47.588Z,7.50
2022-11-01T01:07:14.795Z,6.30
2022-11-01T01:09:41.872Z,6.00
2022-11-01T01:12:08.979Z,5.97
2022-11-01T01:14:36.281Z,6.03
2022-11-01T01:17:04.761Z,5.90
2022-11-01T01:19:31.878Z,5.83
2022-11-01T01:21:58.985Z,5.60
2022-11-01T01:24:26.054Z,5.40
2022-11-01T01:26:53.155Z,5.67
2022-11-01T01:29:20.298Z,6.17
2022-11-01T01:31:47.375Z,5.97
2022-11-01T01:34:15.835Z,5.03
2022-11-01T01:36:42.905Z,5.40
2022-11-01T01:39:10.122Z,5.70
2022-11-01T01:41:37.439Z,5.03
2022-11-01T01:44:19.400Z,5.20
2022-11-01T01:46:46.477Z,5.63
2022-11-01T01:49:13.559Z,6.40
2022-11-01T01:51:41.990Z,6.30
2022-11-01T01:54:09.100Z,6.10
2022-11-01T01:56:37.613Z,4.90
2022-11-01T01:59:05.892Z,4.90
2022-11-01T02:01:34.674Z,5.43
2022-11-01T02:04:02.144Z,4.60
2022-11-01T02:06:29.335Z,5.60
2022-11-01T02:08:59.844Z,5.80
2022-11-01T02:11:26.944Z,6.37
2022-11-01T02:13:54.070Z,4.93
2022-11-01T02:16:36.061Z,6.60
2022-11-01T02:19:11.691Z,5.87
2022-11-01T02:21:47.089Z,5.43
2022-11-01T02:24:26.055Z,5.93
2022-11-01T02:27:07.509Z,5.50
2022-11-01T02:29:48.655Z,5.17
2022-11-01T02:32:20.710Z,4.83
2022-11-01T02:34:52.701Z,5.23
2022-11-01T02:37:22.548Z,6.20
2022-11-01T02:39:51.989Z,6.17
2022-11-01T02:42:20.815Z,4.70
2022-11-01T02:44:52.072Z,4.60
2022-11-01T02:47:20.704Z,4.77
2022-11-01T02:49:48.912Z,5.23
2022-11-01T02:52:18.386Z,4.70
2022-11-01T02:54:46.442Z,4.60
2022-11-01T02:57:24.740Z,4.60
2022-11-01T02:59:51.852Z,5.70
2022-11-01T03:02:23.426Z,4.80
2022-11-01T03:04:50.566Z,5.40
2022-11-01T03:07:17.789Z,5.53
2022-11-01T03:09:45.264Z,5.27
2022-11-01T03:12:14.705Z,5.77
2022-11-01T03:14:45.014Z,5.00
2022-11-01T03:17:13.442Z,4.77
2022-11-01T03:19:44.166Z,4.30
2022-11-01T03:22:13.933Z,4.87
2022-11-01T03:24:44.479Z,6.10
2022-11-01T03:27:14.253Z,5.47
2022-11-01T03:29:42.762Z,5.60
2022-11-01T03:32:10.279Z,4.90
2022-11-01T03:34:38.575Z,4.87
2022-11-01T03:37:09.689Z,4.70
2022-11-01T03:39:40.521Z,4.80
2022-11-01T03:42:09.004Z,4.70
2022-11-01T03:44:38.847Z,5.17
2022-11-01T03:47:06.002Z,5.80
2022-11-01T03:49:33.116Z,4.90
2022-11-01T03:52:00.216Z,4.67
2022-11-01T03:54:28.615Z,4.57
2022-11-01T03:56:55.726Z,4.57
2022-11-01T03:59:22.915Z,4.37
2022-11-01T04:01:50.359Z,4.23
2022-11-01T04:04:17.578Z,4.60
2022-11-01T04:06:44.689Z,4.50
2022-11-01T04:09:11.761Z,4.93
2022-11-01T04:11:40.172Z,4.30
2022-11-01T04:14:07.319Z,4.40
2022-11-01T04:16:34.385Z,3.73
2022-11-01T04:19:01.461Z,4.10
2022-11-01T04:21:29.959Z,4.13
2022-11-01T04:23:57.014Z,4.10
2022-11-01T04:26:24.433Z,4.10
2022-11-01T04:28:52.841Z,4.60
2022-11-01T04:31:19.908Z,4.30
2022-11-01T04:33:46.994Z,3.70
2022-11-01T04:36:14.089Z,3.90
2022-11-01T04:38:41.163Z,3.70
2022-11-01T04:41:08.255Z,4.47
2022-11-01T04:43:35.335Z,2.77
2022-11-01T04:46:03.755Z,4.07
2022-11-01T04:48:30.846Z,4.20
2022-11-01T04:51:00.009Z,3.60
2022-11-01T04:53:27.098Z,3.97
2022-11-01T04:55:54.194Z,3.63
2022-11-01T04:58:21.336Z,3.53
2022-11-01T05:00:48.451Z,3.80
2022-11-01T05:03:16.934Z,3.77
2022-11-01T05:05:43.998Z,3.70
2022-11-01T05:08:12.059Z,3.93
2022-11-01T05:10:40.002Z,4.10
2022-11-01T05:13:07.615Z,3.73
2022-11-01T05:15:40.055Z,4.00
2022-11-01T05:18:16.411Z,3.67
2022-11-01T05:20:43.490Z,4.30
2022-11-01T05:23:10.566Z,4.27
2022-11-01T05:25:38.397Z,3.80
2022-11-01T05:28:06.718Z,4.13
2022-11-01T05:30:33.941Z,4.27
2022-11-01T05:33:01.674Z,3.73
2022-11-01T05:35:30.460Z,3.80
2022-11-01T05:37:58.053Z,4.83
2022-11-01T05:40:25.653Z,4.30
2022-11-01T05:42:52.741Z,4.57
2022-11-01T05:45:19.836Z,3.63
2022-11-01T05:47:46.925Z,4.50
2022-11-01T05:50:14.900Z,3.50
2022-11-01T05:52:43.462Z,3.90
2022-11-01T05:55:10.926Z,3.30
2022-11-01T05:57:38.215Z,3.80
2022-11-01T06:00:05.792Z,4.13
2022-11-01T06:02:39.177Z,3.73
2022-11-01T06:05:06.470Z,3.33
2022-11-01T06:07:35.499Z,2.90
2022-11-01T06:10:04.424Z,2.43
2022-11-01T06:12:31.518Z,2.40
2022-11-01T06:14:58.567Z,2.80
2022-11-01T06:17:25.671Z,2.43
2022-11-01T06:19:52.772Z,1.97
2022-11-01T06:22:19.863Z,1.77
2022-11-01T06:24:46.957Z,2.00
2022-11-01T06:27:15.362Z,2.03
2022-11-01T06:29:42.462Z,2.20
2022-11-01T06:32:09.527Z,2.90
2022-11-01T06:34:40.782Z,1.60
2022-11-01T06:37:11.070Z,1.83
2022-11-01T06:39:38.173Z,2.43
2022-11-01T06:42:05.314Z,1.30
2022-11-01T06:44:33.748Z,1.17
2022-11-01T06:47:00.838Z,1.40
2022-11-01T06:49:27.919Z,1.40
2022-11-01T06:51:54.985Z,2.20
2022-11-01T06:54:22.088Z,1.57
2022-11-01T06:56:49.161Z,2.10
2022-11-01T06:59:16.255Z,2.10
2022-11-01T07:01:44.863Z,2.20
2022-11-01T07:06:44.227Z,1.53
2022-11-01T07:09:11.359Z,1.90
2022-11-01T07:11:38.430Z,1.43
2022-11-01T07:14:05.526Z,1.87
2022-11-01T07:16:33.180Z,1.20
2022-11-01T07:19:01.639Z,1.40
2022-11-01T07:21:28.719Z,1.87
2022-11-01T07:23:55.799Z,1.63
2022-11-01T07:26:22.908Z,1.43
2022-11-01T07:28:50.031Z,1.50
2022-11-01T07:31:17.131Z,1.53
2022-11-01T07:33:44.211Z,1.57
2022-11-01T07:36:12.614Z,2.63
2022-11-01T07:38:39.703Z,1.67
2022-11-01T07:41:06.764Z,1.63
2022-11-01T07:43:33.841Z,1.73
2022-11-01T07:46:01.011Z,1.77
2022-11-01T07:48:28.119Z,1.43
2022-11-01T07:50:56.075Z,1.37
2022-11-01T07:53:24.513Z,1.30
2022-11-01T07:55:51.947Z,1.60
2022-11-01T07:58:19.034Z,2.00
2022-11-01T08:00:46.323Z,1.27
2022-11-01T08:03:14.159Z,1.67
2022-11-01T08:05:41.645Z,1.50
2022-11-01T08:08:09.021Z,1.63
2022-11-01T08:10:37.680Z,1.27
2022-11-01T08:13:05.418Z,1.70
2022-11-01T08:15:32.877Z,1.53
2022-11-01T08:18:00.675Z,2.00
2022-11-01T08:20:28.314Z,2.27
2022-11-01T08:22:55.566Z,2.07
2022-11-01T08:25:22.750Z,2.10
2022-11-01T08:27:51.323Z,2.20
2022-11-01T08:30:18.941Z,2.17
2022-11-01T08:32:46.198Z,3.03
2022-11-01T08:35:13.347Z,2.10
2022-11-01T08:37:48.068Z,2.13
2022-11-01T08:40:15.188Z,1.80
2022-11-01T08:42:42.256Z,2.33
2022-11-01T08:45:10.712Z,2.07
2022-11-01T08:47:37.816Z,2.60
2022-11-01T08:50:10.149Z,2.00
2022-11-01T08:52:38.251Z,2.30
2022-11-01T08:55:05.663Z,1.73
2022-11-01T08:57:32.758Z,2.27
2022-11-01T08:59:59.913Z,2.13
2022-11-01T09:02:28.406Z,2.00
2022-11-01T09:04:55.541Z,2.30
2022-11-01T09:07:22.633Z,2.47
2022-11-01T09:09:49.720Z,2.53
2022-11-01T09:12:21.909Z,2.33
2022-11-01T09:14:51.430Z,2.70
2022-11-01T09:17:18.537Z,2.30
2022-11-01T09:19:46.928Z,2.37
2022-11-01T09:22:14.036Z,2.30
2022-11-01T09:24:41.135Z,2.07
2022-11-01T09:27:08.286Z,3.37
2022-11-01T09:29:35.387Z,2.20
2022-11-01T09:32:02.454Z,1.80
2022-11-01T09:34:29.559Z,2.30
2022-11-01T09:36:57.955Z,2.27
2022-11-01T09:39:25.039Z,2.80
2022-11-01T09:41:53.431Z,1.77
2022-11-01T09:44:24.019Z,2.60
2022-11-01T09:46:55.404Z,2.10
2022-11-01T09:49:27.391Z,1.90
2022-11-01T09:51:54.601Z,1.90
2022-11-01T09:54:24.329Z,2.57
2022-11-01T09:56:57.342Z,2.00
2022-11-01T09:59:29.689Z,1.80
2022-11-01T10:02:02.818Z,1.60
2022-11-01T10:04:43.743Z,2.63
2022-11-01T10:07:16.607Z,1.73
2022-11-01T10:09:47.850Z,2.70
2022-11-01T10:12:25.377Z,2.47
2022-11-01T10:14:59.015Z,2.13
2022-11-01T10:17:41.786Z,3.07
2022-11-01T10:20:09.713Z,1.70
2022-11-01T10:22:37.427Z,2.00
2022-11-01T10:25:09.647Z,2.30
2022-11-01T10:27:39.464Z,2.00
2022-11-01T10:30:11.717Z,2.20
2022-11-01T10:32:41.430Z,1.90
2022-11-01T10:35:12.885Z,2.20
2022-11-01T10:37:51.838Z,3.07
2022-11-01T10:40:32.964Z,1.90
2022-11-01T10:43:01.229Z,2.60
2022-11-01T10:45:28.576Z,2.60
2022-11-01T10:47:57.314Z,2.20
2022-11-01T10:50:26.207Z,2.33
2022-11-01T10:52:55.263Z,2.13
2022-11-01T10:55:25.065Z,2.30
2022-11-01T10:57:54.709Z,1.90
2022-11-01T11:00:21.970Z,2.10
2022-11-01T11:02:49.781Z,2.40
2022-11-01T11:05:17.435Z,2.40
2022-11-01T11:07:44.569Z,2.47
2022-11-01T11:10:19.669Z,2.77
2022-11-01T11:12:51.662Z,2.20
2022-11-01T11:15:21.584Z,2.67
2022-11-01T11:17:50.840Z,2.47
2022-11-01T11:20:21.279Z,2.57
2022-11-01T11:22:48.399Z,2.40
2022-11-01T11:25:16.751Z,3.03
2022-11-01T11:27:45.225Z,1.83
2022-11-01T11:30:13.068Z,2.13
2022-11-01T11:32:47.440Z,1.80
2022-11-01T11:35:16.959Z,2.20
2022-11-01T11:37:51.845Z,1.80
2022-11-01T11:40:20.569Z,2.70
2022-11-01T11:42:48.518Z,2.30
2022-11-01T11:45:17.825Z,2.80
2022-11-01T11:47:46.602Z,1.93
2022-11-01T11:50:16.897Z,2.50
2022-11-01T11:52:44.026Z,2.47
2022-11-01T11:55:26.536Z,2.53
2022-11-01T11:57:54.799Z,2.10
2022-11-01T12:00:22.853Z,2.87
2022-11-01T12:02:51.383Z,1.90
2022-11-01T12:05:19.384Z,2.30
2022-11-01T12:07:47.552Z,2.17
2022-11-01T12:10:29.174Z,2.97
2022-11-01T12:12:56.316Z,2.10
2022-11-01T12:15:27.643Z,2.67
2022-11-01T12:17:56.106Z,2.73
2022-11-01T12:20:23.866Z,2.70
2022-11-01T12:22:52.414Z,1.97
2022-11-01T12:25:21.540Z,2.10
2022-11-01T12:27:51.940Z,3.07
2022-11-01T12:30:20.257Z,2.53
2022-11-01T12:32:50.692Z,3.13
2022-11-01T12:35:22.347Z,2.50
2022-11-01T12:37:54.535Z,3.13
2022-11-01T12:40:23.907Z,2.37
2022-11-01T12:42:51.596Z,1.50
2022-11-01T12:45:23.136Z,2.50
2022-11-01T12:47:53.596Z,1.93
2022-11-01T12:50:23.512Z,2.57
2022-11-01T12:52:52.132Z,2.43
2022-11-01T12:55:29.355Z,2.47
2022-11-01T12:57:56.498Z,2.40
2022-11-01T13:00:24.182Z,2.17
2022-11-01T13:03:03.562Z,2.00
2022-11-01T13:05:39.532Z,2.23
2022-11-01T13:08:10.861Z,2.00
2022-11-01T13:13:17.435Z,1.90
2022-11-01T13:15:50.622Z,1.83
2022-11-01T13:18:22.915Z,2.30
2022-11-01T13:20:55.912Z,2.47
2022-11-01T13:23:26.774Z,2.50
2022-11-01T13:25:57.176Z,2.10
2022-11-01T13:28:42.170Z,2.43
2022-11-01T13:31:14.316Z,1.83
2022-11-01T13:33:44.774Z,2.20
2022-11-01T13:36:16.906Z,1.77
2022-11-01T13:38:46.559Z,1.87
2022-11-01T13:41:18.682Z,2.57
2022-11-01T13:43:49.700Z,2.40
2022-11-01T13:46:25.428Z,2.47
2022-11-01T13:49:25.759Z,2.10
2022-11-01T13:51:56.815Z,2.37
2022-11-01T13:54:25.917Z,2.03
2022-11-01T13:56:55.862Z,2.17
2022-11-01T13:59:40.823Z,2.37
2022-11-01T14:02:22.898Z,2.30
2022-11-01T14:04:55.648Z,1.93
2022-11-01T14:07:24.147Z,2.57
2022-11-01T14:09:51.454Z,2.10
2022-11-01T14:12:36.488Z,2.20
2022-11-01T14:15:17.614Z,1.97
2022-11-01T14:17:55.212Z,2.73
2022-11-01T14:20:40.814Z,2.20
2022-11-01T14:23:26.637Z,1.80
2022-11-01T14:26:16.446Z,1.60
2022-11-01T14:28:44.029Z,1.90
2022-11-01T14:31:13.481Z,2.10
2022-11-01T14:33:40.764Z,2.07
2022-11-01T14:36:08.432Z,3.00
2022-11-01T14:38:39.280Z,2.10
2022-11-01T14:41:08.129Z,1.80
2022-11-01T14:43:36.577Z,2.47
2022-11-01T14:46:05.383Z,2.00
2022-11-01T14:48:36.424Z,1.80
2022-11-01T14:51:07.055Z,2.30
2022-11-01T14:53:35.272Z,1.67
2022-11-01T14:56:12.781Z,1.87
2022-11-01T14:58:40.048Z,1.53
2022-11-01T15:01:08.326Z,1.90
2022-11-01T15:03:35.513Z,2.13
2022-11-01T15:06:02.596Z,2.10
2022-11-01T15:08:30.927Z,1.80
2022-11-01T15:10:59.172Z,2.17
2022-11-01T15:13:28.667Z,1.83
2022-11-01T15:16:07.293Z,2.47
2022-11-01T15:18:34.483Z,2.10
2022-11-01T15:21:01.677Z,1.63
2022-11-01T15:23:31.119Z,1.40
2022-11-01T15:25:59.974Z,2.00
2022-11-01T15:28:31.542Z,1.90
2022-11-01T15:30:59.919Z,1.87
2022-11-01T15:33:28.155Z,1.90
2022-11-01T15:35:56.052Z,2.00
2022-11-01T15:38:23.317Z,1.80
2022-11-01T15:40:50.488Z,1.93
2022-11-01T15:43:18.160Z,2.03
2022-11-01T15:45:47.771Z,1.87
2022-11-01T15:48:17.874Z,2.33
2022-11-01T15:50:47.577Z,1.83
2022-11-01T15:53:17.643Z,2.10
2022-11-01T15:55:45.810Z,2.00
2022-11-01T15:58:14.781Z,2.37
2022-11-01T16:00:42.830Z,2.30
2022-11-01T16:03:15.811Z,2.17
2022-11-01T16:05:44.073Z,2.37
2022-11-01T16:08:14.934Z,2.40
2022-11-01T16:10:44.848Z,2.43
2022-11-01T16:13:14.327Z,2.43
2022-11-01T16:15:41.532Z,2.17
2022-11-01T16:18:16.760Z,2.03
2022-11-01T16:20:43.874Z,2.03
2022-11-01T16:23:11.611Z,2.13
2022-11-01T16:25:39.960Z,2.43
2022-11-01T16:28:27.136Z,2.67
2022-11-01T16:30:54.901Z,2.13
2022-11-01T16:33:28.987Z,2.27
2022-11-01T16:35:57.212Z,1.90
2022-11-01T16:38:38.096Z,2.40
2022-11-01T16:41:06.344Z,2.30
2022-11-01T16:43:34.300Z,1.77
2022-11-01T16:46:01.695Z,4.43
2022-11-01T16:48:31.304Z,3.40
2022-11-01T16:50:59.377Z,3.20
2022-11-01T16:53:27.045Z,2.40
2022-11-01T16:56:23.166Z,3.47
2022-11-01T16:58:50.013Z,2.70
2022-11-01T17:01:20.446Z,2.20
2022-11-01T17:03:49.753Z,2.93
2022-11-01T17:06:16.844Z,2.67
2022-11-01T17:08:43.915Z,3.13
2022-11-01T17:11:11.010Z,3.17
2022-11-01T17:13:38.064Z,2.30
2022-11-01T17:16:05.678Z,2.17
2022-11-01T17:18:34.844Z,2.23
2022-11-01T17:21:06.169Z,3.07
2022-11-01T17:23:33.520Z,2.73
2022-11-01T17:26:01.552Z,2.90
2022-11-01T17:28:28.866Z,3.00
2022-11-01T17:30:55.966Z,2.30
2022-11-01T17:33:23.277Z,2.90
2022-11-01T17:35:50.628Z,2.30
2022-11-01T17:38:21.220Z,1.87
2022-11-01T17:40:48.318Z,2.10
2022-11-01T17:43:16.031Z,1.83
2022-11-01T17:45:43.095Z,2.20
2022-11-01T17:48:10.228Z,1.87
2022-11-01T17:50:37.521Z,2.03
2022-11-01T17:53:05.080Z,2.43
2022-11-01T17:55:35.167Z,1.90
2022-11-01T17:58:02.522Z,2.07
2022-11-01T18:00:29.924Z,3.07
2022-11-01T18:02:57.086Z,2.47
2022-11-01T18:05:24.174Z,2.30
2022-11-01T18:07:51.857Z,2.77
2022-11-01T18:10:20.724Z,2.10
2022-11-01T18:13:02.196Z,2.63
2022-11-01T18:15:34.929Z,2.77
2022-11-01T18:18:10.991Z,2.30
2022-11-01T18:20:41.126Z,2.33
2022-11-01T18:23:11.011Z,2.90
2022-11-01T18:25:40.743Z,2.37
2022-11-01T18:28:12.236Z,2.80
2022-11-01T18:30:39.772Z,1.70
2022-11-01T18:33:10.249Z,2.93
2022-11-01T18:35:39.662Z,2.17
2022-11-01T18:38:12.004Z,2.83
2022-11-01T18:40:44.450Z,2.40
2022-11-01T18:43:12.844Z,2.37
2022-11-01T18:46:04.525Z,2.57
2022-11-01T18:48:27.629Z,3.17
2022-11-01T18:51:03.953Z,3.60
2022-11-01T18:53:33.194Z,3.00
2022-11-01T18:56:14.316Z,2.60
2022-11-01T18:58:42.772Z,3.03
2022-11-01T19:01:12.605Z,3.47
2022-11-01T19:03:39.696Z,2.60
2022-11-01T19:06:13.797Z,2.50
2022-11-01T19:08:40.901Z,2.30
2022-11-01T19:11:11.367Z,2.93
2022-11-01T19:13:38.711Z,2.40
2022-11-01T19:16:10.588Z,3.10
2022-11-01T19:18:40.690Z,2.80
2022-11-01T19:21:14.545Z,3.13
2022-11-01T19:23:42.826Z,2.73
2022-11-01T19:26:15.061Z,3.30
2022-11-01T19:28:42.145Z,3.10
2022-11-01T19:31:16.464Z,2.20
2022-11-01T19:33:45.567Z,2.20
2022-11-01T19:36:14.821Z,2.43
2022-11-01T19:38:41.965Z,2.40
2022-11-01T19:41:10.898Z,3.00
2022-11-01T19:43:37.992Z,4.07
2022-11-01T19:46:05.080Z,3.00
2022-11-01T19:48:35.511Z,2.77
2022-11-01T19:51:02.639Z,2.60
2022-11-01T19:53:30.891Z,2.53
2022-11-01T19:55:59.455Z,3.50
2022-11-01T19:58:28.001Z,2.43
2022-11-01T20:01:03.166Z,3.07
2022-11-01T20:03:33.536Z,3.23
2022-11-01T20:06:02.005Z,3.00
2022-11-01T20:08:31.775Z,3.23
2022-11-01T20:10:58.852Z,2.77
2022-11-01T20:13:25.960Z,2.73
2022-11-01T20:15:53.080Z,3.30
2022-11-01T20:18:20.161Z,2.97
2022-11-01T20:20:47.248Z,2.07
2022-11-01T20:23:31.086Z,2.70
2022-11-01T20:25:58.224Z,2.80
2022-11-01T20:28:25.344Z,3.10
2022-11-01T20:30:52.443Z,2.37
2022-11-01T20:33:19.553Z,2.93
2022-11-01T20:35:46.665Z,3.17
2022-11-01T20:38:13.801Z,2.80
2022-11-01T20:40:42.227Z,2.87
2022-11-01T20:43:09.332Z,2.50
2022-11-01T20:45:36.401Z,2.63
2022-11-01T20:48:04.009Z,2.40
2022-11-01T20:50:31.110Z,2.60
2022-11-01T20:52:58.179Z,3.47
2022-11-01T20:55:25.288Z,3.10
2022-11-01T20:57:53.700Z,2.90
2022-11-01T21:00:20.793Z,2.93
2022-11-01T21:02:47.883Z,4.00
2022-11-01T21:05:22.423Z,3.40
2022-11-01T21:07:49.819Z,2.30
2022-11-01T21:10:26.002Z,2.70
2022-11-01T21:12:54.779Z,2.60
2022-11-01T21:15:32.063Z,3.00
2022-11-01T21:18:01.181Z,3.30
2022-11-01T21:20:28.278Z,3.00
2022-11-01T21:22:57.028Z,2.43
2022-11-01T21:25:24.120Z,3.30
2022-11-01T21:27:51.215Z,3.20
2022-11-01T21:30:20.368Z,2.83
2022-11-01T21:32:47.475Z,3.60
2022-11-01T21:35:36.936Z,3.60
2022-11-01T21:38:12.845Z,3.20
2022-11-01T21:40:39.910Z,3.10
2022-11-01T21:43:20.453Z,2.80
2022-11-01T21:45:49.164Z,2.67
2022-11-01T21:48:19.351Z,3.23
2022-11-01T21:50:46.420Z,3.47
2022-11-01T21:53:13.511Z,2.20
2022-11-01T21:55:40.697Z,4.40
2022-11-01T21:58:07.769Z,3.50
2022-11-01T22:00:34.850Z,3.30
2022-11-01T22:03:03.583Z,2.40
2022-11-01T22:05:30.817Z,3.17
2022-11-01T22:07:57.888Z,2.50
2022-11-01T22:10:24.983Z,3.10
2022-11-01T22:12:52.047Z,3.13
2022-11-01T22:15:19.188Z,2.80
2022-11-01T22:17:46.277Z,2.93
2022-11-01T22:20:14.814Z,3.30
2022-11-01T22:22:41.884Z,2.40
2022-11-01T22:25:09.119Z,2.40
2022-11-01T22:27:36.216Z,2.90
2022-11-01T22:30:03.292Z,2.93
2022-11-01T22:32:30.387Z,3.47
2022-11-01T22:34:57.450Z,2.60
2022-11-01T22:37:26.666Z,2.37
2022-11-01T22:39:53.918Z,3.37
2022-11-01T22:42:21.139Z,3.30
2022-11-01T22:44:49.560Z,3.03
2022-11-01T22:47:23.679Z,2.30
2022-11-01T22:49:51.847Z,2.40
2022-11-01T22:52:23.314Z,2.43
2022-11-01T22:54:52.697Z,4.93
2022-11-01T22:57:21.784Z,3.37
2022-11-01T22:59:51.083Z,2.90
2022-11-01T23:02:29.239Z,3.23
2022-11-01T23:05:18.832Z,2.60
2022-11-01T23:07:46.718Z,2.50
2022-11-01T23:10:22.786Z,2.80
2022-11-01T23:12:50.291Z,2.70
2022-11-01T23:15:25.746Z,2.90
2022-11-01T23:17:52.836Z,2.73
2022-11-01T23:20:19.929Z,3.13
2022-11-01T23:22:47.013Z,2.97
2022-11-01T23:25:14.242Z,3.10
2022-11-01T23:27:43.613Z,2.60
2022-11-01T23:30:11.231Z,3.00
2022-11-01T23:32:38.378Z,2.50
2022-11-01T23:35:10.703Z,3.53
2022-11-01T23:37:37.948Z,2.40
2022-11-01T23:40:05.336Z,2.40
2022-11-01T23:42:32.469Z,2.87
2022-11-01T23:45:00.891Z,2.50
2022-11-01T23:47:31.527Z,3.17
2022-11-01T23:50:00.834Z,3.30
2022-11-01T23:52:30.525Z,2.43
2022-11-01T23:54:57.749Z,2.33
2022-11-01T23:57:24.986Z,2.93
2022-11-01T23:59:52.461Z,2.97
